Time,TemperatureF,DewpointF,PressureIn,WindDirection,WindDirectionDegrees,WindSpeedMPH,WindSpeedGustMPH,Humidity,HourlyPrecipIn,Conditions,Clouds,dailyrainin,SoftwareType,DateUTC
2013-03-01 00:11:00,51.0,41.0,29.81,NNE,33,4.0,-999.0,69,0.00,,,0.00,,2013-03-01 08:11:00,
2013-03-01 00:22:00,51.0,41.0,29.81,NNE,33,4.0,-999.0,69,0.00,,,0.00,,2013-03-01 08:22:00,
2013-03-01 00:32:00,51.0,41.0,29.81,NNE,33,4.0,-999.0,69,0.00,,,0.00,,2013-03-01 08:32:00,
2013-03-01 00:42:00,51.0,41.0,29.81,NNE,33,4.0,-999.0,69,0.00,,,0.00,,2013-03-01 08:42:00,
2013-03-01 01:11:00,50.0,40.0,29.81,NW,316,3.0,-999.0,68,0.00,,,0.00,,2013-03-01 09:11:00,
2013-03-01 01:22:00,50.0,40.0,29.81,NW,316,3.0,-999.0,68,0.00,,,0.00,,2013-03-01 09:22:00,
2013-03-01 01:32:00,50.0,40.0,29.81,NW,316,3.0,-999.0,68,0.00,,,0.00,,2013-03-01 09:32:00,
2013-03-01 01:42:00,50.0,40.0,29.81,NW,316,3.0,-999.0,68,0.00,,,0.00,,2013-03-01 09:42:00,
2013-03-01 02:11:00,49.0,40.0,29.81,North,4,5.0,-999.0,69,0.00,,,0.00,,2013-03-01 10:11:00,
2013-03-01 02:21:00,49.0,40.0,29.81,North,4,5.0,-999.0,69,0.00,,,0.00,,2013-03-01 10:21:00,
2013-03-01 02:32:00,49.0,40.0,29.81,North,4,5.0,-999.0,69,0.00,,,0.00,,2013-03-01 10:32:00,
2013-03-01 02:41:00,49.0,40.0,29.81,North,4,5.0,-999.0,69,0.00,,,0.00,,2013-03-01 10:41:00,
2013-03-01 03:11:00,49.0,40.0,29.80,SSW,197,2.0,-999.0,70,0.00,,,0.00,,2013-03-01 11:11:00,
2013-03-01 03:22:00,49.0,40.0,29.80,SSW,197,2.0,-999.0,70,0.00,,,0.00,,2013-03-01 11:22:00,
2013-03-01 03:32:00,49.0,40.0,29.80,SSW,197,2.0,-999.0,70,0.00,,,0.00,,2013-03-01 11:32:00,
2013-03-01 03:41:00,49.0,40.0,29.80,SSW,197,2.0,-999.0,70,0.00,,,0.00,,2013-03-01 11:41:00,
2013-03-01 04:11:00,49.0,40.0,29.79,NE,41,5.0,-999.0,71,0.00,,,0.00,,2013-03-01 12:11:00,
2013-03-01 04:21:00,49.0,40.0,29.79,NE,41,5.0,-999.0,71,0.00,,,0.00,,2013-03-01 12:21:00,
2013-03-01 04:32:00,49.0,40.0,29.79,NE,41,5.0,-999.0,71,0.00,,,0.00,,2013-03-01 12:32:00,
2013-03-01 04:42:00,49.0,40.0,29.79,NE,41,5.0,-999.0,71,0.00,,,0.00,,2013-03-01 12:42:00,
2013-03-01 05:11:00,47.0,39.0,29.80,SSE,158,8.0,-999.0,73,0.00,,,0.00,,2013-03-01 13:11:00,
2013-03-01 05:21:00,47.0,39.0,29.80,SSE,158,8.0,-999.0,73,0.00,,,0.00,,2013-03-01 13:21:00,
2013-03-01 05:32:00,47.0,39.0,29.80,SSE,158,8.0,-999.0,73,0.00,,,0.00,,2013-03-01 13:32:00,
2013-03-01 05:41:00,47.0,39.0,29.80,SSE,158,8.0,-999.0,73,0.00,,,0.00,,2013-03-01 13:41:00,
2013-03-01 06:11:00,47.0,39.0,29.79,NNE,20,5.0,-999.0,74,0.00,,,0.00,,2013-03-01 14:11:00,
2013-03-01 06:21:00,47.0,39.0,29.79,NNE,20,5.0,-999.0,74,0.00,,,0.00,,2013-03-01 14:21:00,
2013-03-01 06:32:00,47.0,39.0,29.79,NNE,20,5.0,-999.0,74,0.00,,,0.00,,2013-03-01 14:32:00,
2013-03-01 06:41:00,47.0,39.0,29.79,NNE,20,5.0,-999.0,74,0.00,,,0.00,,2013-03-01 14:41:00,
2013-03-01 08:11:00,47.0,39.0,29.79,NNE,22,6.0,-999.0,74,-99.99,,,0.00,,2013-03-01 16:11:00,
2013-03-01 08:21:00,47.0,39.0,29.79,NNE,22,6.0,-999.0,74,-99.99,,,0.00,,2013-03-01 16:21:00,
2013-03-01 08:31:00,47.0,39.0,29.79,NNE,22,6.0,-999.0,74,-99.99,,,0.00,,2013-03-01 16:31:00,
2013-03-01 08:41:00,47.0,39.0,29.79,NNE,22,6.0,-999.0,74,-99.99,,,0.00,,2013-03-01 16:41:00,
2013-03-01 09:11:00,54.0,40.0,29.78,ESE,109,4.0,-999.0,59,0.00,,,0.00,,2013-03-01 17:11:00,
2013-03-01 09:21:00,54.0,40.0,29.78,ESE,109,4.0,-999.0,59,0.00,,,0.00,,2013-03-01 17:21:00,
2013-03-01 09:31:00,54.0,40.0,29.78,ESE,109,4.0,-999.0,59,0.00,,,0.00,,2013-03-01 17:31:00,
2013-03-01 09:41:00,54.0,40.0,29.78,ESE,109,4.0,-999.0,59,0.00,,,0.00,,2013-03-01 17:41:00,
2013-03-01 10:12:00,66.0,40.0,29.76,NE,47,2.0,-999.0,39,0.00,,,0.00,,2013-03-01 18:12:00,
2013-03-01 10:22:00,66.0,40.0,29.76,NE,47,2.0,-999.0,39,0.00,,,0.00,,2013-03-01 18:22:00,
2013-03-01 10:41:00,66.0,40.0,29.76,NE,47,2.0,-999.0,39,0.00,,,0.00,,2013-03-01 18:41:00,
2013-03-01 11:11:00,67.0,40.0,29.75,South,190,3.0,-999.0,37,0.00,,,0.00,,2013-03-01 19:11:00,
2013-03-01 11:21:00,67.0,40.0,29.75,South,190,3.0,-999.0,37,0.00,,,0.00,,2013-03-01 19:21:00,
2013-03-01 11:31:00,67.0,40.0,29.75,South,190,3.0,-999.0,37,0.00,,,0.00,,2013-03-01 19:31:00,
2013-03-01 11:41:00,67.0,40.0,29.75,South,190,3.0,-999.0,37,0.00,,,0.00,,2013-03-01 19:41:00,
2013-03-01 12:11:00,69.0,38.0,29.73,SW,234,3.0,-999.0,33,0.00,,,0.00,,2013-03-01 20:11:00,
2013-03-01 12:21:00,69.0,38.0,29.73,SW,234,3.0,-999.0,33,0.00,,,0.00,,2013-03-01 20:21:00,
2013-03-01 12:31:00,69.0,38.0,29.73,SW,234,3.0,-999.0,33,0.00,,,0.00,,2013-03-01 20:31:00,
2013-03-01 12:41:00,69.0,38.0,29.73,SW,234,3.0,-999.0,33,0.00,,,0.00,,2013-03-01 20:41:00,
2013-03-01 13:11:00,75.0,40.0,29.70,NW,319,5.0,-999.0,29,0.00,,,0.00,,2013-03-01 21:11:00,
2013-03-01 13:21:00,75.0,40.0,29.70,NW,319,5.0,-999.0,29,0.00,,,0.00,,2013-03-01 21:21:00,
2013-03-01 13:31:00,75.0,40.0,29.70,NW,319,5.0,-999.0,29,0.00,,,0.00,,2013-03-01 21:31:00,
2013-03-01 13:41:00,75.0,40.0,29.70,NW,319,5.0,-999.0,29,0.00,,,0.00,,2013-03-01 21:41:00,
2013-03-01 14:11:00,75.0,40.0,29.67,WNW,289,4.0,-999.0,28,0.00,,,0.00,,2013-03-01 22:11:00,
2013-03-01 14:21:00,75.0,40.0,29.67,WNW,289,4.0,-999.0,28,0.00,,,0.00,,2013-03-01 22:21:00,
2013-03-01 14:31:00,75.0,40.0,29.67,WNW,289,4.0,-999.0,28,0.00,,,0.00,,2013-03-01 22:31:00,
2013-03-01 14:41:00,75.0,40.0,29.67,WNW,289,4.0,-999.0,28,0.00,,,0.00,,2013-03-01 22:41:00,
2013-03-01 15:11:00,74.0,41.0,29.64,West,268,2.0,-999.0,30,0.00,,,0.00,,2013-03-01 23:11:00,
2013-03-01 15:21:00,74.0,41.0,29.64,West,268,2.0,-999.0,30,0.00,,,0.00,,2013-03-01 23:21:00,
2013-03-01 15:31:00,74.0,41.0,29.64,West,268,2.0,-999.0,30,0.00,,,0.00,,2013-03-01 23:31:00,
2013-03-01 15:41:00,74.0,41.0,29.64,West,268,2.0,-999.0,30,0.00,,,0.00,,2013-03-01 23:41:00,
2013-03-01 16:11:00,78.0,39.0,29.61,WNW,293,5.0,-999.0,25,0.00,,,0.00,,2013-03-02 00:11:00,
2013-03-01 16:21:00,78.0,39.0,29.61,WNW,293,5.0,-999.0,25,0.00,,,0.00,,2013-03-02 00:21:00,
2013-03-01 16:31:00,78.0,39.0,29.61,WNW,293,5.0,-999.0,25,0.00,,,0.00,,2013-03-02 00:31:00,
2013-03-01 16:41:00,78.0,39.0,29.61,WNW,293,5.0,-999.0,25,0.00,,,0.00,,2013-03-02 00:41:00,
2013-03-01 17:11:00,76.0,39.0,29.61,WNW,300,3.0,-999.0,26,0.00,,,0.00,,2013-03-02 01:11:00,
2013-03-01 17:21:00,76.0,39.0,29.61,WNW,300,3.0,-999.0,26,0.00,,,0.00,,2013-03-02 01:21:00,
2013-03-01 17:31:00,76.0,39.0,29.61,WNW,300,3.0,-999.0,26,0.00,,,0.00,,2013-03-02 01:31:00,
2013-03-01 17:41:00,76.0,39.0,29.61,WNW,300,3.0,-999.0,26,0.00,,,0.00,,2013-03-02 01:41:00,
2013-03-01 18:11:00,68.0,44.0,29.63,South,181,5.0,-999.0,41,0.00,,,0.00,,2013-03-02 02:11:00,
2013-03-01 18:21:00,68.0,44.0,29.63,South,181,5.0,-999.0,41,0.00,,,0.00,,2013-03-02 02:21:00,
2013-03-01 18:31:00,68.0,44.0,29.63,South,181,5.0,-999.0,41,0.00,,,0.00,,2013-03-02 02:31:00,
2013-03-01 18:41:00,68.0,44.0,29.63,South,181,5.0,-999.0,41,0.00,,,0.00,,2013-03-02 02:41:00,
2013-03-01 19:11:00,64.0,44.0,29.64,East,79,8.0,-999.0,48,0.00,,,0.00,,2013-03-02 03:11:00,
2013-03-01 19:21:00,64.0,44.0,29.64,East,79,8.0,-999.0,48,0.00,,,0.00,,2013-03-02 03:21:00,
2013-03-01 19:32:00,64.0,44.0,29.64,East,79,8.0,-999.0,48,0.00,,,0.00,,2013-03-02 03:32:00,
2013-03-01 19:41:00,64.0,44.0,29.64,East,79,8.0,-999.0,48,0.00,,,0.00,,2013-03-02 03:41:00,
2013-03-01 20:11:00,61.0,44.0,29.66,SE,136,7.0,-999.0,52,0.00,,,0.00,,2013-03-02 04:11:00,
2013-03-01 20:21:00,61.0,44.0,29.66,SE,136,7.0,-999.0,52,0.00,,,0.00,,2013-03-02 04:21:00,
2013-03-01 20:32:00,61.0,44.0,29.66,SE,136,7.0,-999.0,52,0.00,,,0.00,,2013-03-02 04:32:00,
2013-03-01 20:41:00,61.0,44.0,29.66,SE,136,7.0,-999.0,52,0.00,,,0.00,,2013-03-02 04:41:00,
2013-03-01 21:12:00,59.0,44.0,29.66,SSE,154,6.0,-999.0,57,0.00,,,0.00,,2013-03-02 05:12:00,
2013-03-01 21:22:00,59.0,44.0,29.66,SSE,154,6.0,-999.0,57,0.00,,,0.00,,2013-03-02 05:22:00,
2013-03-01 21:31:00,59.0,44.0,29.66,SSE,154,6.0,-999.0,57,0.00,,,0.00,,2013-03-02 05:31:00,
2013-03-01 21:41:00,59.0,44.0,29.66,SSE,154,6.0,-999.0,57,0.00,,,0.00,,2013-03-02 05:41:00,
2013-03-01 22:11:00,57.0,44.0,29.68,ENE,60,4.0,-999.0,63,0.00,,,0.00,,2013-03-02 06:11:00,
2013-03-01 22:21:00,57.0,44.0,29.68,ENE,60,4.0,-999.0,63,0.00,,,0.00,,2013-03-02 06:21:00,
2013-03-01 22:31:00,57.0,44.0,29.68,ENE,60,4.0,-999.0,63,0.00,,,0.00,,2013-03-02 06:31:00,
2013-03-01 22:41:00,57.0,44.0,29.68,ENE,60,4.0,-999.0,63,0.00,,,0.00,,2013-03-02 06:41:00,
2013-03-01 23:11:00,55.0,43.0,29.70,NW,322,2.0,-999.0,65,0.00,,,0.00,,2013-03-02 07:11:00,
2013-03-01 23:21:00,55.0,43.0,29.70,NW,322,2.0,-999.0,65,0.00,,,0.00,,2013-03-02 07:21:00,
2013-03-01 23:32:00,55.0,43.0,29.70,NW,322,2.0,-999.0,65,0.00,,,0.00,,2013-03-02 07:32:00,
2013-03-01 23:42:00,55.0,43.0,29.70,NW,322,2.0,-999.0,65,0.00,,,0.00,,2013-03-02 07:42:00,